createdAt,value
2018-05-18T00:00:31.046Z,101246.55
2018-05-18T00:01:33.537Z,101252.08
2018-05-18T00:02:36.066Z,101255.66
2018-05-18T00:03:38.601Z,101251.75
2018-05-18T00:04:41.095Z,101259.63
2018-05-18T00:05:43.702Z,101249.96
2018-05-18T00:06:46.216Z,101253.38
2018-05-18T00:07:48.714Z,101249.47
2018-05-18T00:08:51.195Z,101247.92
2018-05-18T00:09:53.667Z,101244.75
2018-05-18T00:10:56.157Z,101240.84
2018-05-18T00:11:58.630Z,101247.35
2018-05-18T00:13:01.146Z,101238.48
2018-05-18T00:14:03.653Z,101241.66
2018-05-18T00:15:06.163Z,101241.50
2018-05-18T00:16:08.667Z,101242.47
2018-05-18T00:17:11.161Z,101245.64
2018-05-18T00:18:13.679Z,101237.52
2018-05-18T00:19:16.164Z,101236.38
2018-05-18T00:20:23.553Z,101238.56
2018-05-18T00:21:26.040Z,101235.64
2018-05-18T00:22:28.517Z,101235.64
2018-05-18T00:23:31.035Z,101238.97
2018-05-18T00:24:33.564Z,101237.59
2018-05-18T00:25:36.049Z,101244.91
2018-05-18T00:26:38.582Z,101240.19
2018-05-18T00:27:41.066Z,101243.20
2018-05-18T00:28:43.605Z,101237.34
2018-05-18T00:29:46.097Z,101238.80
2018-05-18T00:30:48.593Z,101234.66
2018-05-18T00:31:51.073Z,101238.72
2018-05-18T00:32:53.587Z,101235.55
2018-05-18T00:33:56.078Z,101237.34
2018-05-18T00:34:58.615Z,101242.30
2018-05-18T00:36:01.094Z,101239.53
2018-05-18T00:37:03.620Z,101241.48
2018-05-18T00:38:06.109Z,101237.75
2018-05-18T00:39:08.641Z,101245.22
2018-05-18T00:40:11.155Z,101235.14
2018-05-18T00:41:13.667Z,101242.05
2018-05-18T00:42:16.143Z,101243.03
2018-05-18T00:43:18.655Z,101243.03
2018-05-18T00:44:21.190Z,101243.84
2018-05-18T00:45:23.685Z,101238.72
2018-05-18T00:46:26.203Z,101237.50
2018-05-18T00:47:28.694Z,101236.53
2018-05-18T00:48:31.185Z,101238.31
2018-05-18T00:49:33.715Z,101241.48
2018-05-18T00:50:36.190Z,101241.48
2018-05-18T00:51:38.695Z,101238.89
2018-05-18T00:52:41.209Z,101240.67
2018-05-18T00:53:43.708Z,101236.94
2018-05-18T00:54:46.239Z,101237.91
2018-05-18T00:55:48.733Z,101239.86
2018-05-18T00:56:51.225Z,101243.77
2018-05-18T00:57:53.756Z,101241.41
2018-05-18T00:58:56.238Z,101240.59
2018-05-18T00:59:58.752Z,101233.04
2018-05-18T01:01:01.223Z,101238.16
2018-05-18T01:02:03.752Z,101232.88
2018-05-18T01:03:06.249Z,101238.48
2018-05-18T01:04:08.764Z,101235.89
2018-05-18T01:05:11.278Z,101237.60
2018-05-18T01:06:13.844Z,101238.17
2018-05-18T01:07:16.328Z,101238.91
2018-05-18T01:08:18.805Z,101237.45
2018-05-18T01:09:21.297Z,101240.78
2018-05-18T01:10:23.844Z,101237.75
2018-05-18T01:11:26.318Z,101236.94
2018-05-18T01:12:28.824Z,101239.05
2018-05-18T01:13:31.337Z,101236.05
2018-05-18T01:14:33.855Z,101241.17
2018-05-18T01:15:36.366Z,101234.42
2018-05-18T01:16:38.846Z,101236.54
2018-05-18T01:17:41.348Z,101239.70
2018-05-18T01:18:43.837Z,101232.80
2018-05-18T01:19:46.329Z,101234.59
2018-05-18T01:20:48.820Z,101239.14
2018-05-18T01:21:51.406Z,101235.00
2018-05-18T01:22:53.901Z,101234.02
2018-05-18T01:23:56.411Z,101240.52
2018-05-18T01:24:58.900Z,101237.59
2018-05-18T01:26:01.414Z,101230.61
2018-05-18T01:27:03.888Z,101229.63
2018-05-18T01:28:06.371Z,101232.73
2018-05-18T01:29:08.900Z,101231.91
2018-05-18T01:30:11.365Z,101238.01
2018-05-18T01:31:13.881Z,101239.55
2018-05-18T01:32:16.387Z,101234.77
2018-05-18T01:33:18.873Z,101238.66
2018-05-18T01:34:21.358Z,101235.50
2018-05-18T01:35:23.854Z,101233.14
2018-05-18T01:36:26.363Z,101239.37
2018-05-18T01:37:28.909Z,101239.37
2018-05-18T01:38:31.386Z,101238.42
2018-05-18T01:39:33.860Z,101232.38
2018-05-18T01:40:36.349Z,101237.09
2018-05-18T01:41:38.884Z,101233.49
2018-05-18T01:42:41.377Z,101235.44
2018-05-18T01:43:43.886Z,101233.81
2018-05-18T01:44:46.367Z,101237.16
2018-05-18T01:45:48.884Z,101229.84
2018-05-18T01:46:51.370Z,101235.36
2018-05-18T01:47:53.841Z,101231.14
2018-05-18T01:48:56.315Z,101233.91
2018-05-18T01:49:58.820Z,101233.09
2018-05-18T01:51:01.313Z,101232.69
2018-05-18T01:52:03.802Z,101229.28
2018-05-18T01:53:06.319Z,101230.09
2018-05-18T01:54:08.794Z,101230.66
2018-05-18T01:55:11.295Z,101228.06
2018-05-18T01:56:13.773Z,101231.23
2018-05-18T01:57:16.276Z,101230.82
2018-05-18T01:58:18.779Z,101227.25
2018-05-18T01:59:21.262Z,101222.94
2018-05-18T02:00:23.771Z,101225.30
2018-05-18T02:01:26.242Z,101225.54
2018-05-18T02:02:28.754Z,101217.25
2018-05-18T02:03:31.237Z,101221.80
2018-05-18T02:04:33.727Z,101221.40
2018-05-18T02:05:36.216Z,101220.02
2018-05-18T02:06:38.694Z,101223.75
2018-05-18T02:07:41.195Z,101214.49
2018-05-18T02:08:43.682Z,101221.40
2018-05-18T02:09:46.177Z,101222.38
2018-05-18T02:10:48.689Z,101227.73
2018-05-18T02:11:51.162Z,101225.13
2018-05-18T02:12:53.662Z,101223.75
2018-05-18T02:13:56.176Z,101227.33
2018-05-18T02:14:58.710Z,101227.41
2018-05-18T02:16:01.187Z,101227.41
2018-05-18T02:17:03.687Z,101229.03
2018-05-18T02:18:06.186Z,101229.03
2018-05-18T02:19:08.731Z,101229.03
2018-05-18T02:20:11.221Z,101233.58
2018-05-18T02:21:13.713Z,101230.89
2018-05-18T02:22:16.223Z,101229.11
2018-05-18T02:23:18.752Z,101229.11
2018-05-18T02:24:21.241Z,101235.03
2018-05-18T02:25:23.728Z,101235.44
2018-05-18T02:26:26.217Z,101232.11
2018-05-18T02:27:28.689Z,101229.34
2018-05-18T02:28:31.197Z,101230.48
2018-05-18T02:29:33.703Z,101236.02
2018-05-18T02:30:36.233Z,101231.87
2018-05-18T02:31:38.725Z,101233.08
2018-05-18T02:32:41.231Z,101231.30
2018-05-18T02:33:43.759Z,101231.98
2018-05-18T02:34:46.266Z,101227.84
2018-05-18T02:35:48.757Z,101229.30
2018-05-18T02:36:51.251Z,101236.06
2018-05-18T02:37:53.758Z,101233.30
2018-05-18T02:38:56.273Z,101226.23
2018-05-18T02:39:58.779Z,101231.19
2018-05-18T02:41:01.294Z,101228.09
2018-05-18T02:42:03.807Z,101228.50
2018-05-18T02:43:06.317Z,101227.53
2018-05-18T02:44:08.855Z,101231.43
2018-05-18T02:45:11.345Z,101240.45
2018-05-18T02:46:13.923Z,101237.85
2018-05-18T02:47:16.403Z,101240.34
2018-05-18T02:48:18.915Z,101245.06
2018-05-18T02:49:21.422Z,101242.75
2018-05-18T02:50:23.923Z,101247.06
2018-05-18T02:51:26.424Z,101243.08
2018-05-18T02:52:28.915Z,101237.31
2018-05-18T02:53:31.435Z,101243.00
2018-05-18T02:54:33.963Z,101246.34
2018-05-18T02:55:36.461Z,101247.88
2018-05-18T02:56:38.963Z,101245.28
2018-05-18T02:57:41.472Z,101243.91
2018-05-18T02:58:43.972Z,101243.41
2018-05-18T02:59:46.499Z,101241.22
2018-05-18T03:00:48.993Z,101247.72
2018-05-18T03:01:51.755Z,101244.31
2018-05-18T03:02:54.241Z,101246.67
2018-05-18T03:03:56.719Z,101247.23
2018-05-18T03:04:59.234Z,101248.78
2018-05-18T03:06:01.756Z,101248.38
2018-05-18T03:07:04.625Z,101244.39
2018-05-18T03:08:07.162Z,101250.89
2018-05-18T03:09:09.653Z,101245.53
2018-05-18T03:10:12.263Z,101252.03
2018-05-18T03:11:14.768Z,101235.87
2018-05-18T03:12:17.262Z,101242.94
2018-05-18T03:13:19.748Z,101245.70
2018-05-18T03:14:22.283Z,101244.88
2018-05-18T03:15:24.783Z,101243.50
2018-05-18T03:16:27.273Z,101241.45
2018-05-18T03:17:29.775Z,101244.61
2018-05-18T03:18:32.274Z,101244.88
2018-05-18T03:19:34.742Z,101246.10
2018-05-18T03:20:37.270Z,101241.96
2018-05-18T03:21:39.745Z,101242.77
2018-05-18T03:22:42.239Z,101246.91
2018-05-18T03:23:44.726Z,101245.70
2018-05-18T03:24:47.225Z,101247.24
2018-05-18T03:25:49.744Z,101242.66
2018-05-18T03:26:52.233Z,101247.37
2018-05-18T03:27:54.721Z,101244.88
2018-05-18T03:28:57.232Z,101241.84
2018-05-18T03:29:59.751Z,101237.70
2018-05-18T03:31:02.266Z,101238.80
2018-05-18T03:32:04.854Z,101243.34
2018-05-18T03:33:07.273Z,101238.80
2018-05-18T03:34:09.775Z,101238.39
2018-05-18T03:35:12.267Z,101229.70
2018-05-18T03:36:14.759Z,101231.61
2018-05-18T03:37:17.271Z,101238.69
2018-05-18T03:38:19.762Z,101234.38
2018-05-18T03:39:22.364Z,101238.95
2018-05-18T03:40:24.852Z,101241.72
2018-05-18T03:41:27.443Z,101243.50
2018-05-18T03:42:29.937Z,101246.27
2018-05-18T03:43:32.410Z,101237.98
2018-05-18T03:44:34.901Z,101244.61
2018-05-18T03:45:37.413Z,101237.30
2018-05-18T03:46:39.946Z,101246.40
2018-05-18T03:47:42.427Z,101242.53
2018-05-18T03:48:44.924Z,101245.42
2018-05-18T03:49:47.429Z,101244.20
2018-05-18T03:50:49.992Z,101243.80
2018-05-18T03:51:52.503Z,101240.87
2018-05-18T03:52:54.992Z,101246.16
2018-05-18T03:53:57.489Z,101246.08
2018-05-18T03:55:00.000Z,101249.81
2018-05-18T03:56:02.505Z,101250.78
2018-05-18T03:57:05.031Z,101243.80
2018-05-18T03:58:07.544Z,101249.73
2018-05-18T03:59:10.049Z,101249.33
2018-05-18T04:00:12.522Z,101250.70
2018-05-18T04:01:26.917Z,101249.73
2018-05-18T04:02:41.193Z,101247.95
2018-05-18T04:03:55.629Z,101244.53
2018-05-18T04:05:09.908Z,101246.89
2018-05-18T04:06:24.161Z,101246.65
2018-05-18T04:07:38.302Z,101253.55
2018-05-18T04:08:52.274Z,101247.63
2018-05-18T04:09:54.754Z,101247.63
2018-05-18T04:10:57.264Z,101255.50
2018-05-18T04:11:59.788Z,101253.55
2018-05-18T04:13:02.280Z,101256.07
2018-05-18T04:14:04.835Z,101255.09
2018-05-18T04:15:07.323Z,101260.62
2018-05-18T04:16:09.816Z,101261.52
2018-05-18T04:17:12.317Z,101258.42
2018-05-18T04:18:14.790Z,101262.16
2018-05-18T04:19:17.306Z,101262.73
2018-05-18T04:20:19.820Z,101268.66
2018-05-18T04:21:22.332Z,101267.44
2018-05-18T04:22:24.802Z,101264.68
2018-05-18T04:23:27.293Z,101272.97
2018-05-18T04:24:29.814Z,101274.34
2018-05-18T04:25:32.344Z,101273.13
2018-05-18T04:26:34.818Z,101272.16
2018-05-18T04:27:37.301Z,101273.53
2018-05-18T04:28:39.792Z,101275.31
2018-05-18T04:29:42.286Z,101264.68
2018-05-18T04:30:44.759Z,101277.52
2018-05-18T04:31:47.256Z,101276.53
2018-05-18T04:32:49.731Z,101273.38
2018-05-18T04:33:52.285Z,101270.20
2018-05-18T04:34:54.777Z,101273.05
2018-05-18T04:35:57.283Z,101277.35
2018-05-18T04:36:59.804Z,101274.67
2018-05-18T04:38:02.300Z,101276.05
2018-05-18T04:39:07.590Z,101276.94
2018-05-18T04:40:10.097Z,101278.53
2018-05-18T04:41:12.605Z,101278.20
2018-05-18T04:42:15.104Z,101277.07
2018-05-18T04:43:17.692Z,101278.69
2018-05-18T04:44:20.145Z,101280.28
2018-05-18T04:45:22.687Z,101281.09
2018-05-18T04:46:25.203Z,101267.29
2018-05-18T04:47:27.700Z,101277.44
2018-05-18T04:48:30.198Z,101279.70
2018-05-18T04:49:32.717Z,101276.34
2018-05-18T04:50:35.257Z,101279.91
2018-05-18T04:51:37.762Z,101282.81
2018-05-18T04:52:40.246Z,101284.92
2018-05-18T04:53:42.774Z,101282.38
2018-05-18T04:54:45.252Z,101289.19
2018-05-18T04:55:47.735Z,101285.91
2018-05-18T04:56:50.216Z,101286.62
2018-05-18T04:57:52.717Z,101286.55
2018-05-18T04:58:55.286Z,101287.03
2018-05-18T04:59:57.750Z,101295.88
2018-05-18T05:01:00.249Z,101290.27
2018-05-18T05:02:02.779Z,101290.42
2018-05-18T05:03:05.297Z,101293.50
2018-05-18T05:04:07.810Z,101287.98
2018-05-18T05:05:10.641Z,101286.09
2018-05-18T05:06:13.137Z,101290.95
2018-05-18T05:07:15.622Z,101288.76
2018-05-18T05:08:18.123Z,101288.19
2018-05-18T05:09:20.598Z,101289.16
2018-05-18T05:10:23.107Z,101298.50
2018-05-18T05:11:25.619Z,101299.11
2018-05-18T05:12:28.127Z,101295.78
2018-05-18T05:13:30.855Z,101291.89
2018-05-18T05:14:33.358Z,101295.47
2018-05-18T05:15:35.851Z,101292.38
2018-05-18T05:16:38.379Z,101294.17
2018-05-18T05:17:40.895Z,101297.50
2018-05-18T05:18:43.380Z,101294.65
2018-05-18T05:19:45.863Z,101293.02
2018-05-18T05:20:48.351Z,101299.43
2018-05-18T05:21:50.848Z,101302.07
2018-05-18T05:22:53.359Z,101299.38
2018-05-18T05:23:55.864Z,101299.30
2018-05-18T05:24:58.362Z,101294.58
2018-05-18T05:26:00.843Z,101302.59
2018-05-18T05:27:03.345Z,101300.84
2018-05-18T05:28:05.993Z,101298.98
2018-05-18T05:29:08.493Z,101299.05
2018-05-18T05:30:10.986Z,101301.47
2018-05-18T05:31:13.503Z,101294.97
2018-05-18T05:32:16.084Z,101296.95
2018-05-18T05:33:18.572Z,101297.34
2018-05-18T05:34:21.073Z,101297.31
2018-05-18T05:35:23.558Z,101296.05
2018-05-18T05:36:26.073Z,101300.56
2018-05-18T05:37:28.598Z,101300.39
2018-05-18T05:38:31.438Z,101302.40
2018-05-18T05:39:34.427Z,101300.36
2018-05-18T05:40:37.201Z,101301.81
2018-05-18T05:41:39.696Z,101304.60
2018-05-18T05:42:42.236Z,101301.26
2018-05-18T05:43:44.726Z,101311.53
2018-05-18T05:44:47.229Z,101305.86
2018-05-18T05:45:49.739Z,101303.92
2018-05-18T05:46:52.390Z,101299.29
2018-05-18T05:47:54.889Z,101300.92
2018-05-18T05:48:57.382Z,101303.33
2018-05-18T05:49:59.887Z,101303.58
2018-05-18T05:51:02.394Z,101308.94
2018-05-18T05:52:04.909Z,101302.14
2018-05-18T05:53:07.431Z,101304.42
2018-05-18T05:54:09.933Z,101310.27
2018-05-18T05:55:12.455Z,101315.31
2018-05-18T05:56:14.961Z,101302.88
2018-05-18T05:57:17.586Z,101307.34
2018-05-18T05:58:20.114Z,101309.22
2018-05-18T05:59:22.639Z,101304.61
2018-05-18T06:00:25.698Z,101307.70
2018-05-18T06:01:28.271Z,101313.56
2018-05-18T06:02:30.775Z,101310.92
2018-05-18T06:03:33.287Z,101307.28
2018-05-18T06:04:35.785Z,101309.56
2018-05-18T06:05:38.280Z,101303.73
2018-05-18T06:06:40.797Z,101309.34
2018-05-18T06:07:43.278Z,101313.00
2018-05-18T06:08:45.758Z,101309.67
2018-05-18T06:09:48.261Z,101311.70
2018-05-18T06:10:50.773Z,101311.39
2018-05-18T06:11:53.374Z,101313.17
2018-05-18T06:12:55.880Z,101314.52
2018-05-18T06:13:58.422Z,101314.36
2018-05-18T06:15:00.925Z,101312.98
2018-05-18T06:16:03.467Z,101312.66
2018-05-18T06:17:05.957Z,101318.17
2018-05-18T06:18:08.465Z,101318.58
2018-05-18T06:19:10.971Z,101320.37
2018-05-18T06:20:13.470Z,101319.64
2018-05-18T06:21:15.981Z,101323.38
2018-05-18T06:22:18.544Z,101317.86
2018-05-18T06:23:21.058Z,101316.48
2018-05-18T06:24:23.542Z,101320.05
2018-05-18T06:25:26.054Z,101324.19
2018-05-18T06:26:28.568Z,101326.94
2018-05-18T06:27:31.073Z,101327.75
2018-05-18T06:28:33.572Z,101323.62
2018-05-18T06:29:36.080Z,101319.89
2018-05-18T06:30:38.611Z,101325.41
2018-05-18T06:31:41.124Z,101327.75
2018-05-18T06:32:43.640Z,101325.00
2018-05-18T06:33:46.157Z,101325.81
2018-05-18T06:34:48.716Z,101331.33
2018-05-18T06:35:51.217Z,101332.14
2018-05-18T06:36:53.718Z,101326.62
2018-05-18T06:37:56.206Z,101332.55
2018-05-18T06:38:58.686Z,101332.95
2018-05-18T06:40:01.204Z,101334.73
2018-05-18T06:41:03.740Z,101338.30
2018-05-18T06:42:06.237Z,101339.69
2018-05-18T06:43:08.747Z,101339.53
2018-05-18T06:44:11.223Z,101339.37
2018-05-18T06:45:13.757Z,101339.37
2018-05-18T06:46:16.253Z,101341.72
2018-05-18T06:47:18.737Z,101335.64
2018-05-18T06:48:21.233Z,101334.51
2018-05-18T06:49:23.757Z,101339.45
2018-05-18T06:50:26.274Z,101334.34
2018-05-18T06:51:28.787Z,101335.16
2018-05-18T06:52:31.287Z,101337.36
2018-05-18T06:53:33.789Z,101341.20
2018-05-18T06:54:36.291Z,101337.06
2018-05-18T06:55:38.812Z,101342.83
2018-05-18T06:56:41.446Z,101339.75
2018-05-18T06:57:43.929Z,101343.33
2018-05-18T06:58:46.488Z,101341.78
2018-05-18T06:59:48.986Z,101346.73
2018-05-18T07:00:51.539Z,101340.91
2018-05-18T07:01:54.041Z,101342.69
2018-05-18T07:02:56.521Z,101341.97
2018-05-18T07:03:59.115Z,101346.76
2018-05-18T07:05:01.617Z,101342.21
2018-05-18T07:06:04.132Z,101344.66
2018-05-18T07:07:06.647Z,101347.50
2018-05-18T07:08:09.143Z,101352.45
2018-05-18T07:09:11.627Z,101355.70
2018-05-18T07:10:14.138Z,101355.58
2018-05-18T07:11:16.660Z,101356.79
2018-05-18T07:12:19.176Z,101360.77
2018-05-18T07:13:21.677Z,101358.17
2018-05-18T07:14:24.197Z,101359.30
2018-05-18T07:15:26.687Z,101362.19
2018-05-18T07:16:29.268Z,101360.00
2018-05-18T07:17:31.690Z,101354.64
2018-05-18T07:18:34.188Z,101354.39
2018-05-18T07:19:36.702Z,101367.62
2018-05-18T07:20:39.198Z,101351.80
2018-05-18T07:21:41.679Z,101355.94
2018-05-18T07:22:44.159Z,101355.36
2018-05-18T07:23:46.659Z,101350.66
2018-05-18T07:24:49.201Z,101351.47
2018-05-18T07:25:52.616Z,101353.10
2018-05-18T07:26:55.157Z,101352.94
2018-05-18T07:27:57.694Z,101352.81
2018-05-18T07:29:00.213Z,101356.23
2018-05-18T07:30:02.818Z,101355.66
2018-05-18T07:31:05.262Z,101359.64
2018-05-18T07:32:07.768Z,101354.94
2018-05-18T07:33:10.272Z,101356.00
2018-05-18T07:34:12.783Z,101348.53
2018-05-18T07:35:15.273Z,101351.54
2018-05-18T07:36:17.807Z,101354.80
2018-05-18T07:37:20.266Z,101358.36
2018-05-18T07:38:22.776Z,101355.85
2018-05-18T07:39:25.381Z,101355.69
2018-05-18T07:40:27.823Z,101359.13
2018-05-18T07:41:30.347Z,101352.23
2018-05-18T07:42:32.877Z,101358.98
2018-05-18T07:43:35.403Z,101361.58
2018-05-18T07:44:37.915Z,101351.92
2018-05-18T07:45:40.437Z,101359.50
2018-05-18T07:46:42.923Z,101359.91
2018-05-18T07:47:45.430Z,101359.34
2018-05-18T07:48:47.971Z,101364.13
2018-05-18T07:49:50.497Z,101361.22
2018-05-18T07:50:53.092Z,101361.63
2018-05-18T07:51:55.594Z,101362.03
2018-05-18T07:52:58.121Z,101364.30
2018-05-18T07:54:00.693Z,101362.36
2018-05-18T07:55:03.188Z,101360.33
2018-05-18T07:56:05.697Z,101358.78
2018-05-18T07:57:08.209Z,101367.06
2018-05-18T07:58:10.694Z,101366.25
2018-05-18T07:59:13.216Z,101359.11
2018-05-18T08:00:15.752Z,101356.51
2018-05-18T08:01:18.234Z,101367.70
2018-05-18T08:02:20.723Z,101365.27
2018-05-18T08:03:23.244Z,101365.02
2018-05-18T08:04:25.736Z,101364.50
2018-05-18T08:05:28.246Z,101370.58
2018-05-18T08:06:30.759Z,101370.30
2018-05-18T08:07:33.247Z,101367.70
2018-05-18T08:08:35.731Z,101366.73
2018-05-18T08:09:38.245Z,101363.00
2018-05-18T08:10:40.802Z,101365.63
2018-05-18T08:11:43.302Z,101367.81
2018-05-18T08:12:45.804Z,101362.70
2018-05-18T08:13:48.347Z,101362.70
2018-05-18T08:14:50.853Z,101360.36
2018-05-18T08:15:53.392Z,101369.61
2018-05-18T08:16:55.898Z,101366.03
2018-05-18T08:17:58.432Z,101364.25
2018-05-18T08:19:00.951Z,101367.01
2018-05-18T08:20:03.471Z,101360.52
2018-05-18T08:21:05.986Z,101357.88
2018-05-18T08:22:08.499Z,101360.23
2018-05-18T08:23:11.022Z,101359.98
2018-05-18T08:24:13.506Z,101358.36
2018-05-18T08:25:16.001Z,101362.09
2018-05-18T08:26:18.545Z,101362.09
2018-05-18T08:27:23.824Z,101359.17
2018-05-18T08:28:26.351Z,101355.45
2018-05-18T08:29:35.660Z,101355.85
2018-05-18T08:30:49.875Z,101362.30
2018-05-18T08:31:52.389Z,101357.44
2018-05-18T08:32:54.880Z,101358.66
2018-05-18T08:33:57.371Z,101361.41
2018-05-18T08:34:59.925Z,101364.30
2018-05-18T08:36:02.451Z,101363.48
2018-05-18T08:37:04.957Z,101360.16
2018-05-18T08:38:07.452Z,101362.34
2018-05-18T08:39:09.982Z,101361.53
2018-05-18T08:40:12.487Z,101365.67
2018-05-18T08:41:14.984Z,101364.86
2018-05-18T08:42:17.515Z,101359.91
2018-05-18T08:43:20.017Z,101364.61
2018-05-18T08:44:22.503Z,101364.74
2018-05-18T08:45:24.998Z,101368.06
2018-05-18T08:46:27.505Z,101358.86
2018-05-18T08:47:29.998Z,101357.80
2018-05-18T08:48:32.493Z,101363.23
2018-05-18T08:49:35.019Z,101363.30
2018-05-18T08:50:37.541Z,101365.00
2018-05-18T08:51:40.038Z,101364.50
2018-05-18T08:52:45.272Z,101362.47
2018-05-18T08:53:47.769Z,101359.43
2018-05-18T08:54:50.272Z,101360.97
2018-05-18T08:55:52.791Z,101361.94
2018-05-18T08:56:55.329Z,101361.53
2018-05-18T08:57:57.910Z,101359.75
2018-05-18T08:59:00.400Z,101364.45
2018-05-18T09:00:02.900Z,101356.91
2018-05-18T09:01:05.394Z,101357.72
2018-05-18T09:02:07.925Z,101361.86
2018-05-18T09:03:10.431Z,101356.34
2018-05-18T09:04:12.971Z,101350.17
2018-05-18T09:05:15.464Z,101354.96
2018-05-18T09:06:18.096Z,101351.23
2018-05-18T09:07:20.594Z,101353.17
2018-05-18T09:08:23.100Z,101353.98
2018-05-18T09:09:25.596Z,101350.82
2018-05-18T09:10:28.098Z,101355.36
2018-05-18T09:11:30.641Z,101352.36
2018-05-18T09:12:33.133Z,101354.96
2018-05-18T09:13:35.656Z,101354.55
2018-05-18T09:14:38.161Z,101350.01
2018-05-18T09:15:40.701Z,101345.30
2018-05-18T09:16:43.212Z,101345.30
2018-05-18T09:17:45.708Z,101346.12
2018-05-18T09:18:48.292Z,101354.80
2018-05-18T09:19:50.793Z,101353.42
2018-05-18T09:20:53.355Z,101347.91
2018-05-18T09:21:55.873Z,101350.25
2018-05-18T09:22:58.377Z,101353.83
2018-05-18T09:24:00.886Z,101351.87
2018-05-18T09:25:03.400Z,101348.72
2018-05-18T09:26:05.998Z,101350.91
2018-05-18T09:27:08.498Z,101346.77
2018-05-18T09:28:11.002Z,101350.50
2018-05-18T09:29:13.494Z,101351.72
2018-05-18T09:30:15.981Z,101347.58
2018-05-18T09:31:18.474Z,101346.20
2018-05-18T09:32:21.070Z,101342.23
2018-05-18T09:33:23.568Z,101343.04
2018-05-18T09:34:26.071Z,101348.97
2018-05-18T09:35:28.592Z,101345.64
2018-05-18T09:36:31.150Z,101349.78
2018-05-18T09:37:33.653Z,101347.98
2018-05-18T09:38:36.152Z,101350.19
2018-05-18T09:39:38.750Z,101340.69
2018-05-18T09:40:41.271Z,101346.20
2018-05-18T09:41:43.787Z,101348.40
2018-05-18T09:42:46.371Z,101341.09
2018-05-18T09:43:48.863Z,101347.98
2018-05-18T09:44:51.385Z,101344.42
2018-05-18T09:45:53.895Z,101348.56
2018-05-18T09:46:56.413Z,101341.66
2018-05-18T09:47:58.909Z,101345.95
2018-05-18T09:49:01.423Z,101344.98
2018-05-18T09:50:04.021Z,101348.72
2018-05-18T09:51:06.465Z,101346.77
2018-05-18T09:52:09.007Z,101343.61
2018-05-18T09:53:13.757Z,101353.67
2018-05-18T09:54:14.060Z,101350.09
2018-05-18T09:55:16.845Z,101351.87
2018-05-18T09:56:19.078Z,101347.18
2018-05-18T09:57:21.595Z,101343.20
2018-05-18T09:58:24.089Z,101347.34
2018-05-18T09:59:26.614Z,101352.86
2018-05-18T10:00:29.162Z,101348.72
2018-05-18T10:01:31.667Z,101349.53
2018-05-18T10:02:34.181Z,101344.98
2018-05-18T10:03:36.703Z,101344.42
2018-05-18T10:04:39.189Z,101347.58
2018-05-18T10:05:41.699Z,101350.34
2018-05-18T10:06:44.275Z,101344.83
2018-05-18T10:07:46.801Z,101345.39
2018-05-18T10:08:49.331Z,101343.86
2018-05-18T10:09:51.821Z,101346.61
2018-05-18T10:10:54.321Z,101346.20
2018-05-18T10:11:56.838Z,101345.23
2018-05-18T10:12:59.372Z,101337.93
2018-05-18T10:14:01.859Z,101342.48
2018-05-18T10:15:04.365Z,101345.64
2018-05-18T10:16:06.884Z,101345.64
2018-05-18T10:17:09.389Z,101346.05
2018-05-18T10:18:11.894Z,101346.20
2018-05-18T10:19:14.420Z,101346.05
2018-05-18T10:20:16.939Z,101344.54
2018-05-18T10:21:19.561Z,101344.54
2018-05-18T10:22:22.161Z,101350.19
2018-05-18T10:23:24.770Z,101351.56
2018-05-18T10:24:27.291Z,101346.48
2018-05-18T10:25:29.804Z,101341.09
2018-05-18T10:26:32.291Z,101344.67
2018-05-18T10:27:34.825Z,101344.27
2018-05-18T10:28:37.330Z,101346.48
2018-05-18T10:29:39.824Z,101346.05
2018-05-18T10:30:42.314Z,101346.05
2018-05-18T10:31:44.838Z,101347.02
2018-05-18T10:32:47.375Z,101344.67
2018-05-18T10:33:49.919Z,101344.27
2018-05-18T10:34:52.410Z,101335.98
2018-05-18T10:35:54.933Z,101333.23
2018-05-18T10:36:57.425Z,101333.63
2018-05-18T10:37:59.935Z,101329.66
2018-05-18T10:39:02.468Z,101337.93
2018-05-18T10:40:04.951Z,101330.47
2018-05-18T10:41:07.434Z,101341.09
2018-05-18T10:42:09.933Z,101333.95
2018-05-18T10:43:12.458Z,101332.58
2018-05-18T10:44:14.961Z,101334.11
2018-05-18T10:45:17.507Z,101328.19
2018-05-18T10:46:19.967Z,101323.64
2018-05-18T10:47:22.481Z,101333.70
2018-05-18T10:48:24.996Z,101323.64
2018-05-18T10:49:27.517Z,101325.59
2018-05-18T10:50:30.047Z,101320.48
2018-05-18T10:51:32.565Z,101322.42
2018-05-18T10:52:35.093Z,101328.34
2018-05-18T10:53:37.597Z,101323.23
2018-05-18T10:54:40.133Z,101319.66
2018-05-18T10:55:42.618Z,101320.89
2018-05-18T10:56:45.150Z,101327.94
2018-05-18T10:57:47.633Z,101317.47
2018-05-18T10:58:50.138Z,101317.31
2018-05-18T10:59:52.647Z,101319.66
2018-05-18T11:00:55.159Z,101313.34
2018-05-18T11:01:57.686Z,101318.28
2018-05-18T11:03:00.182Z,101317.88
2018-05-18T11:04:02.709Z,101310.17
2018-05-18T11:05:05.280Z,101310.02
2018-05-18T11:06:07.847Z,101310.98
2018-05-18T11:07:10.379Z,101314.72
2018-05-18T11:08:12.892Z,101313.74
2018-05-18T11:09:15.422Z,101317.88
2018-05-18T11:10:17.969Z,101313.91
2018-05-18T11:11:20.459Z,101312.12
2018-05-18T11:12:22.964Z,101311.55
2018-05-18T11:13:25.868Z,101302.05
2018-05-18T11:14:28.414Z,101301.65
2018-05-18T11:15:30.937Z,101300.84
2018-05-18T11:16:33.436Z,101306.77
2018-05-18T11:17:35.913Z,101305.63
2018-05-18T11:18:38.402Z,101302.63
2018-05-18T11:19:40.900Z,101307.73
2018-05-18T11:20:43.577Z,101303.34
2018-05-18T11:21:46.080Z,101304.73
2018-05-18T11:22:48.585Z,101303.34
2018-05-18T11:23:51.095Z,101302.53
2018-05-18T11:24:53.592Z,101293.45
2018-05-18T11:25:56.106Z,101292.07
2018-05-18T11:26:58.605Z,101289.72
2018-05-18T11:28:01.116Z,101285.98
2018-05-18T11:29:03.609Z,101296.05
2018-05-18T11:30:06.105Z,101301.16
2018-05-18T11:31:08.631Z,101299.78
2018-05-18T11:32:11.152Z,101300.59
2018-05-18T11:33:13.691Z,101304.08
2018-05-18T11:34:16.183Z,101297.18
2018-05-18T11:35:18.687Z,101297.18
2018-05-18T11:36:21.294Z,101294.02
2018-05-18T11:37:23.753Z,101289.47
2018-05-18T11:38:26.253Z,101288.81
2018-05-18T11:39:28.749Z,101284.11
2018-05-18T11:40:31.305Z,101286.47
2018-05-18T11:41:33.815Z,101285.09
2018-05-18T11:42:36.295Z,101289.62
2018-05-18T11:43:38.939Z,101293.77
2018-05-18T11:44:41.418Z,101283.30
2018-05-18T11:45:43.919Z,101287.03
2018-05-18T11:46:46.433Z,101284.27
2018-05-18T11:47:48.923Z,101283.46
2018-05-18T11:48:51.402Z,101288.81
2018-05-18T11:49:53.916Z,101288.98
2018-05-18T11:50:56.400Z,101277.54
2018-05-18T11:51:58.909Z,101273.81
2018-05-18T11:53:01.391Z,101277.54
2018-05-18T11:54:04.186Z,101277.13
2018-05-18T11:55:06.702Z,101274.37